Evergreen, Colorado
Current Conditions -  °F | °C
As of 12:53 PM on Saturday 25 Oct 2014 (Local Time) from KBJC Reporting Station
Clear Clear  
Wind Chill: 77°   Ceiling: Unl
Heat Index: 77°   Visibility: 50mi
Dew Point: 21°   Wind: 8mph
Humidity: 12%   Direction: 120°ESE
Pressure: 30.2"   Gusts: NA
Location:  39.63°N, 105.31°W
Report Text: KBJC 251853Z 12007KT 50SM SKC 25/M06 A3020
Loading
Personal Weather Stations






























Interactive Weather Map New forecast layout! Learn more

10-Day Weather Forecast

Advertisements
Track Severe Weather on mobile